sensor_id;sensor_type;location;lat;lon;timestamp;P1;durP1;ratioP1;P2;durP2;ratioP2
3193;SDS011;1608;50.860;13.466;2023-03-01T00:00:54;32.27;;;13.53;;
3193;SDS011;1608;50.860;13.466;2023-03-01T00:03:27;22.70;;;10.20;;
3193;SDS011;1608;50.860;13.466;2023-03-01T00:05:54;22.97;;;12.37;;
3193;SDS011;1608;50.860;13.466;2023-03-01T00:08:22;31.17;;;12.40;;
3193;SDS011;1608;50.860;13.466;2023-03-01T00:10:49;19.33;;;9.17;;
3193;SDS011;1608;50.860;13.466;2023-03-01T00:13:15;38.73;;;15.10;;
3193;SDS011;1608;50.860;13.466;2023-03-01T00:15:42;23.00;;;12.33;;
3193;SDS011;1608;50.860;13.466;2023-03-01T00:18:09;30.67;;;11.13;;
3193;SDS011;1608;50.860;13.466;2023-03-01T00:20:36;29.23;;;14.10;;
3193;SDS011;1608;50.860;13.466;2023-03-01T00:23:02;38.43;;;16.30;;
3193;SDS011;1608;50.860;13.466;2023-03-01T00:25:31;27.90;;;12.13;;
3193;SDS011;1608;50.860;13.466;2023-03-01T00:27:57;28.40;;;11.60;;
3193;SDS011;1608;50.860;13.466;2023-03-01T00:30:24;29.70;;;12.57;;
3193;SDS011;1608;50.860;13.466;2023-03-01T00:32:51;14.80;;;8.80;;
3193;SDS011;1608;50.860;13.466;2023-03-01T00:35:18;28.90;;;12.50;;
3193;SDS011;1608;50.860;13.466;2023-03-01T00:37:44;15.30;;;8.90;;
3193;SDS011;1608;50.860;13.466;2023-03-01T00:40:12;24.63;;;10.30;;
3193;SDS011;1608;50.860;13.466;2023-03-01T00:42:42;35.20;;;13.40;;
3193;SDS011;1608;50.860;13.466;2023-03-01T00:45:09;28.27;;;11.70;;
3193;SDS011;1608;50.860;13.466;2023-03-01T00:47:38;28.53;;;13.10;;
3193;SDS011;1608;50.860;13.466;2023-03-01T00:50:05;21.70;;;11.17;;
3193;SDS011;1608;50.860;13.466;2023-03-01T00:52:32;20.10;;;9.87;;
3193;SDS011;1608;50.860;13.466;2023-03-01T00:54:59;27.77;;;10.43;;
3193;SDS011;1608;50.860;13.466;2023-03-01T00:57:26;26.87;;;11.30;;
3193;SDS011;1608;50.860;13.466;2023-03-01T00:59:54;9.30;;;5.40;;
3193;SDS011;1608;50.860;13.466;2023-03-01T01:02:21;26.80;;;9.33;;
3193;SDS011;1608;50.860;13.466;2023-03-01T01:04:48;20.67;;;11.20;;
3193;SDS011;1608;50.860;13.466;2023-03-01T01:07:15;24.43;;;12.30;;
3193;SDS011;1608;50.860;13.466;2023-03-01T01:09:42;18.07;;;10.67;;
3193;SDS011;1608;50.860;13.466;2023-03-01T01:12:09;21.07;;;12.07;;
3193;SDS011;1608;50.860;13.466;2023-03-01T01:14:36;32.00;;;12.47;;
3193;SDS011;1608;50.860;13.466;2023-03-01T01:17:04;16.60;;;10.07;;
3193;SDS011;1608;50.860;13.466;2023-03-01T01:19:31;34.10;;;12.40;;
3193;SDS011;1608;50.860;13.466;2023-03-01T01:21:58;20.43;;;10.57;;
3193;SDS011;1608;50.860;13.466;2023-03-01T01:24:25;20.10;;;9.93;;
3193;SDS011;1608;50.860;13.466;2023-03-01T01:26:52;24.33;;;12.07;;
3193;SDS011;1608;50.860;13.466;2023-03-01T01:29:18;14.43;;;6.23;;
3193;SDS011;1608;50.860;13.466;2023-03-01T01:31:45;21.90;;;9.63;;
3193;SDS011;1608;50.860;13.466;2023-03-01T01:34:14;29.87;;;10.77;;
3193;SDS011;1608;50.860;13.466;2023-03-01T01:36:42;35.97;;;13.47;;
3193;SDS011;1608;50.860;13.466;2023-03-01T01:39:10;31.13;;;10.40;;
3193;SDS011;1608;50.860;13.466;2023-03-01T01:41:38;23.93;;;11.27;;
3193;SDS011;1608;50.860;13.466;2023-03-01T01:44:10;29.90;;;14.20;;
3193;SDS011;1608;50.860;13.466;2023-03-01T01:46:43;34.00;;;12.40;;
3193;SDS011;1608;50.860;13.466;2023-03-01T01:49:19;27.00;;;11.80;;
3193;SDS011;1608;50.860;13.466;2023-03-01T01:51:52;27.07;;;10.90;;
3193;SDS011;1608;50.860;13.466;2023-03-01T01:54:25;18.97;;;8.97;;
3193;SDS011;1608;50.860;13.466;2023-03-01T01:56:57;18.47;;;9.00;;
3193;SDS011;1608;50.860;13.466;2023-03-01T01:59:28;18.53;;;9.40;;
3193;SDS011;1608;50.860;13.466;2023-03-01T02:01:58;14.27;;;8.37;;
3193;SDS011;1608;50.860;13.466;2023-03-01T02:04:27;16.87;;;8.07;;
3193;SDS011;1608;50.860;13.466;2023-03-01T02:06:55;16.77;;;8.53;;
3193;SDS011;1608;50.860;13.466;2023-03-01T02:09:27;18.90;;;11.83;;
3193;SDS011;1608;50.860;13.466;2023-03-01T02:11:56;17.30;;;8.83;;
3193;SDS011;1608;50.860;13.466;2023-03-01T02:14:24;25.37;;;10.50;;
3193;SDS011;1608;50.860;13.466;2023-03-01T02:16:51;27.60;;;10.33;;
3193;SDS011;1608;50.860;13.466;2023-03-01T02:19:25;18.47;;;8.17;;
3193;SDS011;1608;50.860;13.466;2023-03-01T02:22:07;17.87;;;8.87;;
3193;SDS011;1608;50.860;13.466;2023-03-01T02:24:45;9.80;;;6.67;;
3193;SDS011;1608;50.860;13.466;2023-03-01T02:27:20;19.13;;;8.20;;
3193;SDS011;1608;50.860;13.466;2023-03-01T02:29:51;21.10;;;9.47;;
3193;SDS011;1608;50.860;13.466;2023-03-01T02:32:18;28.43;;;11.70;;
3193;SDS011;1608;50.860;13.466;2023-03-01T02:34:50;21.40;;;8.93;;
3193;SDS011;1608;50.860;13.466;2023-03-01T02:37:17;22.03;;;10.40;;
3193;SDS011;1608;50.860;13.466;2023-03-01T02:39:50;17.73;;;8.87;;
3193;SDS011;1608;50.860;13.466;2023-03-01T02:42:25;22.50;;;10.57;;
3193;SDS011;1608;50.860;13.466;2023-03-01T02:44:57;26.00;;;11.27;;
3193;SDS011;1608;50.860;13.466;2023-03-01T02:47:24;22.13;;;11.50;;
3193;SDS011;1608;50.860;13.466;2023-03-01T02:49:51;30.47;;;10.97;;
3193;SDS011;1608;50.860;13.466;2023-03-01T02:55:07;16.10;;;8.43;;
3193;SDS011;1608;50.860;13.466;2023-03-01T02:57:37;21.87;;;5.97;;
3193;SDS011;1608;50.860;13.466;2023-03-01T03:00:08;24.13;;;10.57;;
3193;SDS011;1608;50.860;13.466;2023-03-01T03:02:44;20.37;;;11.10;;
3193;SDS011;1608;50.860;13.466;2023-03-01T03:05:12;10.90;;;5.67;;
3193;SDS011;1608;50.860;13.466;2023-03-01T03:07:41;18.73;;;8.70;;
3193;SDS011;1608;50.860;13.466;2023-03-01T03:10:10;16.37;;;9.87;;
3193;SDS011;1608;50.860;13.466;2023-03-01T03:12:48;14.80;;;7.50;;
3193;SDS011;1608;50.860;13.466;2023-03-01T03:15:16;18.87;;;9.57;;
3193;SDS011;1608;50.860;13.466;2023-03-01T03:17:44;17.13;;;9.83;;
3193;SDS011;1608;50.860;13.466;2023-03-01T03:20:11;22.73;;;10.10;;
3193;SDS011;1608;50.860;13.466;2023-03-01T03:22:44;11.87;;;7.73;;
3193;SDS011;1608;50.860;13.466;2023-03-01T03:25:11;20.30;;;8.73;;
3193;SDS011;1608;50.860;13.466;2023-03-01T03:27:39;23.77;;;11.23;;
3193;SDS011;1608;50.860;13.466;2023-03-01T03:30:07;13.27;;;8.70;;
3193;SDS011;1608;50.860;13.466;2023-03-01T03:32:38;17.30;;;9.30;;
3193;SDS011;1608;50.860;13.466;2023-03-01T03:35:06;13.70;;;6.17;;
3193;SDS011;1608;50.860;13.466;2023-03-01T03:37:35;20.03;;;8.53;;
3193;SDS011;1608;50.860;13.466;2023-03-01T03:40:19;19.63;;;8.20;;
3193;SDS011;1608;50.860;13.466;2023-03-01T03:42:46;18.57;;;9.23;;
3193;SDS011;1608;50.860;13.466;2023-03-01T03:45:13;27.20;;;12.93;;
3193;SDS011;1608;50.860;13.466;2023-03-01T03:47:42;22.37;;;11.10;;
3193;SDS011;1608;50.860;13.466;2023-03-01T03:50:10;18.97;;;11.30;;
3193;SDS011;1608;50.860;13.466;2023-03-01T03:52:37;22.37;;;11.23;;
3193;SDS011;1608;50.860;13.466;2023-03-01T03:55:05;13.97;;;8.40;;
3193;SDS011;1608;50.860;13.466;2023-03-01T03:57:36;17.40;;;8.93;;
3193;SDS011;1608;50.860;13.466;2023-03-01T04:00:03;35.47;;;16.17;;
3193;SDS011;1608;50.860;13.466;2023-03-01T04:02:37;24.07;;;11.30;;
3193;SDS011;1608;50.860;13.466;2023-03-01T04:05:07;27.00;;;11.00;;
3193;SDS011;1608;50.860;13.466;2023-03-01T04:07:35;35.10;;;14.57;;
3193;SDS011;1608;50.860;13.466;2023-03-01T04:10:03;22.57;;;10.47;;
3193;SDS011;1608;50.860;13.466;2023-03-01T04:12:31;15.20;;;9.27;;
3193;SDS011;1608;50.860;13.466;2023-03-01T04:14:59;21.87;;;10.63;;
3193;SDS011;1608;50.860;13.466;2023-03-01T04:17:26;19.97;;;9.53;;
3193;SDS011;1608;50.860;13.466;2023-03-01T04:19:53;39.13;;;11.80;;
3193;SDS011;1608;50.860;13.466;2023-03-01T04:22:21;22.60;;;9.20;;
3193;SDS011;1608;50.860;13.466;2023-03-01T04:24:48;24.30;;;11.60;;
3193;SDS011;1608;50.860;13.466;2023-03-01T04:27:14;37.77;;;14.43;;
3193;SDS011;1608;50.860;13.466;2023-03-01T04:29:41;22.13;;;10.70;;
3193;SDS011;1608;50.860;13.466;2023-03-01T04:32:08;13.77;;;7.93;;
3193;SDS011;1608;50.860;13.466;2023-03-01T04:34:35;18.03;;;8.87;;
3193;SDS011;1608;50.860;13.466;2023-03-01T04:37:01;26.90;;;11.43;;
3193;SDS011;1608;50.860;13.466;2023-03-01T04:39:30;17.20;;;9.10;;
3193;SDS011;1608;50.860;13.466;2023-03-01T04:41:57;21.17;;;10.83;;
3193;SDS011;1608;50.860;13.466;2023-03-01T04:44:24;20.97;;;10.00;;
3193;SDS011;1608;50.860;13.466;2023-03-01T04:46:51;26.20;;;11.37;;
3193;SDS011;1608;50.860;13.466;2023-03-01T04:49:18;20.10;;;9.47;;
3193;SDS011;1608;50.860;13.466;2023-03-01T04:51:44;15.63;;;9.67;;
3193;SDS011;1608;50.860;13.466;2023-03-01T04:54:11;18.30;;;10.00;;
3193;SDS011;1608;50.860;13.466;2023-03-01T04:56:39;19.77;;;10.23;;
3193;SDS011;1608;50.860;13.466;2023-03-01T04:59:06;21.97;;;9.30;;
3193;SDS011;1608;50.860;13.466;2023-03-01T05:01:35;23.10;;;11.70;;
3193;SDS011;1608;50.860;13.466;2023-03-01T05:04:02;32.93;;;11.23;;
3193;SDS011;1608;50.860;13.466;2023-03-01T05:06:30;20.93;;;10.40;;
3193;SDS011;1608;50.860;13.466;2023-03-01T05:08:57;24.83;;;10.10;;
3193;SDS011;1608;50.860;13.466;2023-03-01T05:11:24;16.80;;;8.37;;
3193;SDS011;1608;50.860;13.466;2023-03-01T05:13:54;17.10;;;9.30;;
3193;SDS011;1608;50.860;13.466;2023-03-01T05:16:21;22.33;;;11.47;;
3193;SDS011;1608;50.860;13.466;2023-03-01T05:18:48;30.47;;;12.50;;
3193;SDS011;1608;50.860;13.466;2023-03-01T05:21:16;27.83;;;10.37;;
3193;SDS011;1608;50.860;13.466;2023-03-01T05:23:43;17.47;;;10.23;;
3193;SDS011;1608;50.860;13.466;2023-03-01T05:26:11;25.73;;;12.70;;
3193;SDS011;1608;50.860;13.466;2023-03-01T05:28:39;20.20;;;9.87;;
3193;SDS011;1608;50.860;13.466;2023-03-01T05:31:07;15.63;;;9.27;;
3193;SDS011;1608;50.860;13.466;2023-03-01T05:33:35;24.07;;;10.73;;
3193;SDS011;1608;50.860;13.466;2023-03-01T05:36:03;21.47;;;9.60;;
3193;SDS011;1608;50.860;13.466;2023-03-01T05:38:31;20.50;;;11.20;;
3193;SDS011;1608;50.860;13.466;2023-03-01T05:40:58;31.63;;;12.93;;
3193;SDS011;1608;50.860;13.466;2023-03-01T05:43:25;33.90;;;10.63;;
3193;SDS011;1608;50.860;13.466;2023-03-01T05:45:51;19.10;;;8.73;;
3193;SDS011;1608;50.860;13.466;2023-03-01T05:48:20;28.23;;;11.23;;
3193;SDS011;1608;50.860;13.466;2023-03-01T05:50:46;24.03;;;11.07;;
3193;SDS011;1608;50.860;13.466;2023-03-01T05:53:14;27.20;;;12.10;;
3193;SDS011;1608;50.860;13.466;2023-03-01T05:55:42;22.33;;;9.47;;
3193;SDS011;1608;50.860;13.466;2023-03-01T05:58:11;23.73;;;9.30;;
3193;SDS011;1608;50.860;13.466;2023-03-01T06:00:40;16.03;;;9.50;;
3193;SDS011;1608;50.860;13.466;2023-03-01T06:03:09;29.50;;;11.33;;
3193;SDS011;1608;50.860;13.466;2023-03-01T06:05:38;24.60;;;12.17;;
3193;SDS011;1608;50.860;13.466;2023-03-01T06:08:06;13.57;;;6.87;;
3193;SDS011;1608;50.860;13.466;2023-03-01T06:10:33;31.53;;;11.33;;
3193;SDS011;1608;50.860;13.466;2023-03-01T06:13:00;29.60;;;12.63;;
3193;SDS011;1608;50.860;13.466;2023-03-01T06:15:27;21.23;;;11.70;;
3193;SDS011;1608;50.860;13.466;2023-03-01T06:17:53;33.13;;;14.90;;
3193;SDS011;1608;50.860;13.466;2023-03-01T06:20:22;20.73;;;9.87;;
3193;SDS011;1608;50.860;13.466;2023-03-01T06:22:51;21.23;;;10.87;;
3193;SDS011;1608;50.860;13.466;2023-03-01T06:25:21;36.93;;;13.50;;
3193;SDS011;1608;50.860;13.466;2023-03-01T06:27:49;24.67;;;12.80;;
3193;SDS011;1608;50.860;13.466;2023-03-01T06:30:17;36.17;;;11.90;;
3193;SDS011;1608;50.860;13.466;2023-03-01T06:32:45;28.47;;;12.30;;
3193;SDS011;1608;50.860;13.466;2023-03-01T06:35:13;29.10;;;12.90;;
3193;SDS011;1608;50.860;13.466;2023-03-01T06:37:42;32.13;;;14.00;;
3193;SDS011;1608;50.860;13.466;2023-03-01T06:40:11;26.30;;;12.33;;
3193;SDS011;1608;50.860;13.466;2023-03-01T06:42:40;35.13;;;13.80;;
3193;SDS011;1608;50.860;13.466;2023-03-01T06:45:08;14.80;;;11.30;;
3193;SDS011;1608;50.860;13.466;2023-03-01T06:47:36;33.77;;;14.77;;
3193;SDS011;1608;50.860;13.466;2023-03-01T06:50:03;29.27;;;15.10;;
3193;SDS011;1608;50.860;13.466;2023-03-01T06:52:30;31.70;;;14.20;;
3193;SDS011;1608;50.860;13.466;2023-03-01T06:54:57;35.87;;;13.10;;
3193;SDS011;1608;50.860;13.466;2023-03-01T06:57:25;48.10;;;14.87;;
3193;SDS011;1608;50.860;13.466;2023-03-01T06:59:53;32.40;;;14.90;;
3193;SDS011;1608;50.860;13.466;2023-03-01T07:02:19;43.60;;;15.80;;
3193;SDS011;1608;50.860;13.466;2023-03-01T07:04:46;29.60;;;12.70;;
3193;SDS011;1608;50.860;13.466;2023-03-01T07:07:15;24.30;;;13.60;;
3193;SDS011;1608;50.860;13.466;2023-03-01T07:09:43;38.03;;;15.30;;
3193;SDS011;1608;50.860;13.466;2023-03-01T07:12:09;32.37;;;14.10;;
3193;SDS011;1608;50.860;13.466;2023-03-01T07:14:38;32.13;;;16.60;;
3193;SDS011;1608;50.860;13.466;2023-03-01T07:17:05;24.67;;;15.40;;
3193;SDS011;1608;50.860;13.466;2023-03-01T07:19:32;27.93;;;15.27;;
3193;SDS011;1608;50.860;13.466;2023-03-01T07:21:58;38.30;;;14.90;;
3193;SDS011;1608;50.860;13.466;2023-03-01T07:24:25;41.17;;;15.03;;
3193;SDS011;1608;50.860;13.466;2023-03-01T07:26:52;29.80;;;15.37;;
3193;SDS011;1608;50.860;13.466;2023-03-01T07:29:19;55.60;;;33.63;;
3193;SDS011;1608;50.860;13.466;2023-03-01T07:31:47;68.57;;;29.33;;
3193;SDS011;1608;50.860;13.466;2023-03-01T07:34:14;73.83;;;35.77;;
3193;SDS011;1608;50.860;13.466;2023-03-01T07:36:41;45.53;;;26.00;;
3193;SDS011;1608;50.860;13.466;2023-03-01T07:39:08;38.97;;;21.77;;
3193;SDS011;1608;50.860;13.466;2023-03-01T07:41:35;39.20;;;24.57;;
3193;SDS011;1608;50.860;13.466;2023-03-01T07:44:02;39.43;;;21.67;;
3193;SDS011;1608;50.860;13.466;2023-03-01T07:46:29;39.10;;;20.43;;
3193;SDS011;1608;50.860;13.466;2023-03-01T07:48:57;32.97;;;20.03;;
3193;SDS011;1608;50.860;13.466;2023-03-01T07:51:24;46.63;;;25.70;;
3193;SDS011;1608;50.860;13.466;2023-03-01T07:53:51;36.30;;;22.57;;
3193;SDS011;1608;50.860;13.466;2023-03-01T07:56:18;39.33;;;22.67;;
3193;SDS011;1608;50.860;13.466;2023-03-01T07:58:46;49.77;;;29.27;;
3193;SDS011;1608;50.860;13.466;2023-03-01T08:01:13;49.03;;;28.17;;
3193;SDS011;1608;50.860;13.466;2023-03-01T08:03:41;51.13;;;25.00;;
3193;SDS011;1608;50.860;13.466;2023-03-01T08:06:10;35.77;;;19.13;;
3193;SDS011;1608;50.860;13.466;2023-03-01T08:08:38;30.67;;;20.83;;
3193;SDS011;1608;50.860;13.466;2023-03-01T08:11:06;41.00;;;24.00;;
3193;SDS011;1608;50.860;13.466;2023-03-01T08:13:33;37.40;;;23.87;;
3193;SDS011;1608;50.860;13.466;2023-03-01T08:16:01;34.30;;;24.70;;
3193;SDS011;1608;50.860;13.466;2023-03-01T08:18:28;30.17;;;23.87;;
3193;SDS011;1608;50.860;13.466;2023-03-01T08:20:55;33.20;;;23.23;;
3193;SDS011;1608;50.860;13.466;2023-03-01T08:23:28;36.80;;;24.03;;
3193;SDS011;1608;50.860;13.466;2023-03-01T08:25:55;33.47;;;23.90;;
3193;SDS011;1608;50.860;13.466;2023-03-01T08:28:29;39.43;;;26.40;;
3193;SDS011;1608;50.860;13.466;2023-03-01T08:30:56;41.80;;;26.80;;
3193;SDS011;1608;50.860;13.466;2023-03-01T08:33:23;38.50;;;26.50;;
3193;SDS011;1608;50.860;13.466;2023-03-01T08:35:49;40.73;;;28.03;;
3193;SDS011;1608;50.860;13.466;2023-03-01T08:38:16;39.93;;;28.87;;
3193;SDS011;1608;50.860;13.466;2023-03-01T08:40:44;41.33;;;26.83;;
3193;SDS011;1608;50.860;13.466;2023-03-01T08:43:11;44.87;;;32.80;;
3193;SDS011;1608;50.860;13.466;2023-03-01T08:45:38;37.43;;;27.70;;
3193;SDS011;1608;50.860;13.466;2023-03-01T08:48:05;42.33;;;29.70;;
3193;SDS011;1608;50.860;13.466;2023-03-01T08:50:32;37.60;;;27.03;;
3193;SDS011;1608;50.860;13.466;2023-03-01T08:52:59;45.27;;;29.97;;
3193;SDS011;1608;50.860;13.466;2023-03-01T08:55:25;37.00;;;27.40;;
3193;SDS011;1608;50.860;13.466;2023-03-01T08:57:53;41.53;;;30.10;;
3193;SDS011;1608;50.860;13.466;2023-03-01T09:00:24;29.13;;;20.00;;
3193;SDS011;1608;50.860;13.466;2023-03-01T09:02:51;27.63;;;18.67;;
3193;SDS011;1608;50.860;13.466;2023-03-01T09:05:17;31.07;;;19.87;;
3193;SDS011;1608;50.860;13.466;2023-03-01T09:07:44;33.13;;;22.03;;
3193;SDS011;1608;50.860;13.466;2023-03-01T09:10:11;29.50;;;20.53;;
3193;SDS011;1608;50.860;13.466;2023-03-01T09:12:38;34.10;;;23.43;;
3193;SDS011;1608;50.860;13.466;2023-03-01T09:15:07;30.73;;;23.00;;
3193;SDS011;1608;50.860;13.466;2023-03-01T09:17:34;32.43;;;21.90;;
3193;SDS011;1608;50.860;13.466;2023-03-01T09:20:01;30.00;;;24.00;;
3193;SDS011;1608;50.860;13.466;2023-03-01T09:22:30;28.07;;;22.97;;
3193;SDS011;1608;50.860;13.466;2023-03-01T09:24:58;40.40;;;21.93;;
3193;SDS011;1608;50.860;13.466;2023-03-01T09:27:26;25.27;;;18.73;;
3193;SDS011;1608;50.860;13.466;2023-03-01T09:29:53;22.90;;;17.17;;
3193;SDS011;1608;50.860;13.466;2023-03-01T09:32:22;28.70;;;20.13;;
3193;SDS011;1608;50.860;13.466;2023-03-01T09:34:49;25.37;;;18.67;;
3193;SDS011;1608;50.860;13.466;2023-03-01T09:37:30;27.53;;;18.53;;
3193;SDS011;1608;50.860;13.466;2023-03-01T09:39:57;33.07;;;22.57;;
3193;SDS011;1608;50.860;13.466;2023-03-01T09:42:24;38.20;;;24.47;;
3193;SDS011;1608;50.860;13.466;2023-03-01T09:44:54;40.17;;;25.13;;
3193;SDS011;1608;50.860;13.466;2023-03-01T09:47:26;37.47;;;25.33;;
3193;SDS011;1608;50.860;13.466;2023-03-01T09:49:58;40.47;;;24.93;;
3193;SDS011;1608;50.860;13.466;2023-03-01T09:52:32;39.00;;;22.23;;
3193;SDS011;1608;50.860;13.466;2023-03-01T09:55:04;40.97;;;23.27;;
3193;SDS011;1608;50.860;13.466;2023-03-01T09:57:39;37.77;;;22.27;;
3193;SDS011;1608;50.860;13.466;2023-03-01T10:00:20;41.90;;;22.37;;
3193;SDS011;1608;50.860;13.466;2023-03-01T10:02:57;38.50;;;22.30;;
3193;SDS011;1608;50.860;13.466;2023-03-01T10:05:36;39.63;;;20.53;;
3193;SDS011;1608;50.860;13.466;2023-03-01T10:11:18;32.70;;;15.70;;
3193;SDS011;1608;50.860;13.466;2023-03-01T10:13:48;35.70;;;17.10;;
3193;SDS011;1608;50.860;13.466;2023-03-01T10:16:22;31.13;;;19.07;;
3193;SDS011;1608;50.860;13.466;2023-03-01T10:18:55;31.90;;;18.20;;
3193;SDS011;1608;50.860;13.466;2023-03-01T10:21:26;29.50;;;16.60;;
3193;SDS011;1608;50.860;13.466;2023-03-01T10:23:56;38.23;;;18.40;;
3193;SDS011;1608;50.860;13.466;2023-03-01T10:26:36;56.33;;;27.03;;
3193;SDS011;1608;50.860;13.466;2023-03-01T10:29:13;42.40;;;18.30;;
3193;SDS011;1608;50.860;13.466;2023-03-01T10:31:41;43.53;;;20.20;;
3193;SDS011;1608;50.860;13.466;2023-03-01T10:34:13;26.70;;;16.97;;
3193;SDS011;1608;50.860;13.466;2023-03-01T10:36:42;35.40;;;19.30;;
3193;SDS011;1608;50.860;13.466;2023-03-01T10:39:12;36.37;;;19.67;;
3193;SDS011;1608;50.860;13.466;2023-03-01T10:41:54;41.63;;;21.47;;
3193;SDS011;1608;50.860;13.466;2023-03-01T10:44:36;34.83;;;22.93;;
3193;SDS011;1608;50.860;13.466;2023-03-01T10:47:04;25.90;;;12.67;;
3193;SDS011;1608;50.860;13.466;2023-03-01T10:49:39;36.33;;;17.40;;
3193;SDS011;1608;50.860;13.466;2023-03-01T10:52:26;35.43;;;20.53;;
3193;SDS011;1608;50.860;13.466;2023-03-01T10:54:56;32.33;;;19.40;;
3193;SDS011;1608;50.860;13.466;2023-03-01T10:57:28;45.13;;;19.47;;
3193;SDS011;1608;50.860;13.466;2023-03-01T11:00:16;42.23;;;20.47;;
3193;SDS011;1608;50.860;13.466;2023-03-01T11:02:48;34.27;;;19.13;;
3193;SDS011;1608;50.860;13.466;2023-03-01T11:05:19;34.83;;;17.60;;
3193;SDS011;1608;50.860;13.466;2023-03-01T11:07:50;31.47;;;16.37;;
3193;SDS011;1608;50.860;13.466;2023-03-01T11:10:19;41.87;;;21.27;;
3193;SDS011;1608;50.860;13.466;2023-03-01T11:12:47;42.07;;;20.13;;
3193;SDS011;1608;50.860;13.466;2023-03-01T11:15:21;26.73;;;17.80;;
3193;SDS011;1608;50.860;13.466;2023-03-01T11:17:52;38.83;;;18.30;;
3193;SDS011;1608;50.860;13.466;2023-03-01T11:20:25;38.80;;;20.53;;
3193;SDS011;1608;50.860;13.466;2023-03-01T11:22:56;28.80;;;15.27;;
3193;SDS011;1608;50.860;13.466;2023-03-01T11:25:26;39.37;;;19.93;;
3193;SDS011;1608;50.860;13.466;2023-03-01T11:27:56;38.67;;;17.90;;
3193;SDS011;1608;50.860;13.466;2023-03-01T11:30:26;34.10;;;19.87;;
3193;SDS011;1608;50.860;13.466;2023-03-01T11:32:59;38.57;;;19.03;;
3193;SDS011;1608;50.860;13.466;2023-03-01T11:35:35;30.53;;;14.07;;
3193;SDS011;1608;50.860;13.466;2023-03-01T11:38:12;36.30;;;13.53;;
3193;SDS011;1608;50.860;13.466;2023-03-01T11:40:44;30.33;;;17.37;;
3193;SDS011;1608;50.860;13.466;2023-03-01T11:43:18;32.77;;;18.50;;
3193;SDS011;1608;50.860;13.466;2023-03-01T11:48:56;27.47;;;15.47;;
3193;SDS011;1608;50.860;13.466;2023-03-01T11:51:38;41.80;;;16.50;;
3193;SDS011;1608;50.860;13.466;2023-03-01T11:54:21;29.33;;;15.53;;
3193;SDS011;1608;50.860;13.466;2023-03-01T11:56:57;27.70;;;16.37;;
3193;SDS011;1608;50.860;13.466;2023-03-01T11:59:35;25.73;;;14.37;;
3193;SDS011;1608;50.860;13.466;2023-03-01T12:02:24;28.60;;;15.97;;
3193;SDS011;1608;50.860;13.466;2023-03-01T12:05:18;23.47;;;13.90;;
3193;SDS011;1608;50.860;13.466;2023-03-01T12:07:54;31.63;;;17.13;;
3193;SDS011;1608;50.860;13.466;2023-03-01T12:10:30;30.47;;;17.77;;
3193;SDS011;1608;50.860;13.466;2023-03-01T12:13:16;38.20;;;18.30;;
3193;SDS011;1608;50.860;13.466;2023-03-01T12:16:01;35.30;;;14.50;;
3193;SDS011;1608;50.860;13.466;2023-03-01T12:18:40;34.17;;;17.10;;
3193;SDS011;1608;50.860;13.466;2023-03-01T12:21:21;27.63;;;15.80;;
3193;SDS011;1608;50.860;13.466;2023-03-01T12:24:19;26.83;;;12.97;;
3193;SDS011;1608;50.860;13.466;2023-03-01T12:27:14;28.40;;;15.13;;
3193;SDS011;1608;50.860;13.466;2023-03-01T12:29:56;25.87;;;11.53;;
3193;SDS011;1608;50.860;13.466;2023-03-01T12:32:34;28.07;;;13.63;;
3193;SDS011;1608;50.860;13.466;2023-03-01T12:35:12;21.63;;;13.50;;
3193;SDS011;1608;50.860;13.466;2023-03-01T12:37:59;33.37;;;15.73;;
3193;SDS011;1608;50.860;13.466;2023-03-01T12:43:31;34.63;;;19.03;;
3193;SDS011;1608;50.860;13.466;2023-03-01T12:46:21;26.97;;;16.57;;
3193;SDS011;1608;50.860;13.466;2023-03-01T12:48:56;12.43;;;7.00;;
3193;SDS011;1608;50.860;13.466;2023-03-01T12:51:32;22.30;;;13.20;;
3193;SDS011;1608;50.860;13.466;2023-03-01T12:54:01;18.53;;;10.30;;
3193;SDS011;1608;50.860;13.466;2023-03-01T12:56:39;25.63;;;14.70;;
3193;SDS011;1608;50.860;13.466;2023-03-01T12:59:08;32.67;;;17.37;;
3193;SDS011;1608;50.860;13.466;2023-03-01T13:01:45;32.03;;;20.00;;
3193;SDS011;1608;50.860;13.466;2023-03-01T13:04:23;39.77;;;17.57;;
3193;SDS011;1608;50.860;13.466;2023-03-01T13:06:59;31.10;;;15.03;;
3193;SDS011;1608;50.860;13.466;2023-03-01T13:09:38;27.97;;;16.77;;
3193;SDS011;1608;50.860;13.466;2023-03-01T13:17:53;30.57;;;17.50;;
3193;SDS011;1608;50.860;13.466;2023-03-01T13:20:23;24.33;;;13.57;;
3193;SDS011;1608;50.860;13.466;2023-03-01T13:23:00;29.10;;;15.57;;
3193;SDS011;1608;50.860;13.466;2023-03-01T13:25:29;18.30;;;10.70;;
3193;SDS011;1608;50.860;13.466;2023-03-01T13:30:58;22.87;;;12.67;;
3193;SDS011;1608;50.860;13.466;2023-03-01T13:33:39;26.40;;;14.63;;
3193;SDS011;1608;50.860;13.466;2023-03-01T13:36:08;23.27;;;11.63;;
3193;SDS011;1608;50.860;13.466;2023-03-01T13:38:38;24.13;;;13.37;;
3193;SDS011;1608;50.860;13.466;2023-03-01T13:41:12;30.60;;;15.27;;
3193;SDS011;1608;50.860;13.466;2023-03-01T13:43:40;27.30;;;14.80;;
3193;SDS011;1608;50.860;13.466;2023-03-01T13:46:10;24.90;;;14.87;;
3193;SDS011;1608;50.860;13.466;2023-03-01T13:48:42;24.00;;;14.93;;
3193;SDS011;1608;50.860;13.466;2023-03-01T13:51:10;28.37;;;14.67;;
3193;SDS011;1608;50.860;13.466;2023-03-01T13:53:40;28.90;;;15.03;;
3193;SDS011;1608;50.860;13.466;2023-03-01T13:56:11;25.13;;;12.40;;
3193;SDS011;1608;50.860;13.466;2023-03-01T13:58:44;24.93;;;16.00;;
3193;SDS011;1608;50.860;13.466;2023-03-01T14:01:22;24.70;;;14.60;;
3193;SDS011;1608;50.860;13.466;2023-03-01T14:03:53;21.33;;;11.43;;
3193;SDS011;1608;50.860;13.466;2023-03-01T14:06:22;17.30;;;11.83;;
3193;SDS011;1608;50.860;13.466;2023-03-01T14:08:51;22.60;;;12.63;;
3193;SDS011;1608;50.860;13.466;2023-03-01T14:20:17;29.57;;;14.43;;
3193;SDS011;1608;50.860;13.466;2023-03-01T14:22:46;23.53;;;13.83;;
3193;SDS011;1608;50.860;13.466;2023-03-01T14:25:19;30.77;;;14.30;;
3193;SDS011;1608;50.860;13.466;2023-03-01T14:27:54;28.07;;;15.60;;
3193;SDS011;1608;50.860;13.466;2023-03-01T14:30:26;18.97;;;11.27;;
3193;SDS011;1608;50.860;13.466;2023-03-01T14:32:58;30.53;;;16.13;;
3193;SDS011;1608;50.860;13.466;2023-03-01T14:35:26;22.10;;;12.20;;
3193;SDS011;1608;50.860;13.466;2023-03-01T14:37:54;26.30;;;14.47;;
3193;SDS011;1608;50.860;13.466;2023-03-01T14:40:22;28.30;;;15.40;;
3193;SDS011;1608;50.860;13.466;2023-03-01T14:42:50;32.70;;;18.00;;
3193;SDS011;1608;50.860;13.466;2023-03-01T14:45:19;30.93;;;18.30;;
3193;SDS011;1608;50.860;13.466;2023-03-01T14:47:46;21.47;;;13.00;;
3193;SDS011;1608;50.860;13.466;2023-03-01T14:50:21;30.53;;;16.93;;
3193;SDS011;1608;50.860;13.466;2023-03-01T14:52:50;32.60;;;17.00;;
3193;SDS011;1608;50.860;13.466;2023-03-01T14:55:20;81.13;;;37.70;;
3193;SDS011;1608;50.860;13.466;2023-03-01T14:57:51;48.47;;;21.97;;
3193;SDS011;1608;50.860;13.466;2023-03-01T15:00:19;46.17;;;20.70;;
3193;SDS011;1608;50.860;13.466;2023-03-01T15:02:48;33.73;;;18.77;;
3193;SDS011;1608;50.860;13.466;2023-03-01T15:05:18;36.23;;;21.47;;
3193;SDS011;1608;50.860;13.466;2023-03-01T15:07:52;34.17;;;13.37;;
3193;SDS011;1608;50.860;13.466;2023-03-01T15:10:20;31.70;;;17.70;;
3193;SDS011;1608;50.860;13.466;2023-03-01T15:12:48;29.73;;;16.53;;
3193;SDS011;1608;50.860;13.466;2023-03-01T15:15:32;39.50;;;20.30;;
3193;SDS011;1608;50.860;13.466;2023-03-01T15:18:01;30.80;;;16.93;;
3193;SDS011;1608;50.860;13.466;2023-03-01T15:20:32;32.53;;;18.83;;
3193;SDS011;1608;50.860;13.466;2023-03-01T15:23:01;31.27;;;20.20;;